ADDS METAR Data INFO
IDs: Format: Raw Decoded Include TAF

Data at: 0739 UTC 21 Jul 2018

PAQH 210656Z AUTO 10013KT 10SM BKN032 OVC060 16/13 A3016 RMK AO2 RAB02E37 SLP213 P0000 T01560133
PAQH 210556Z AUTO 12014KT 10SM FEW042 SCT050 OVC070 17/13 A3016 RMK AO2 SLP212 T01670133 10189 20167 57001
PAQH 210456Z AUTO 11010KT 10SM OVC023 17/13 A3016 RMK AO2 SLP213 T01720133
PAQH 210443Z AUTO 12008KT 10SM BKN025 BKN035 OVC045 18/13 A3016 RMK AO2
PAQH 210419Z AUTO 15007KT 10SM BKN032 OVC045 17/13 A3015 RMK AO2
PAQH 210356Z AUTO 10012KT 10SM OVC026 18/14 A3015 RMK AO2 SLP211 T01780139
PAQH 210230Z AUTO 12014KT 10SM OVC028 19/13 A3016 RMK AO2
PAQH 210204Z AUTO 12013KT 10SM OVC030 18/13 A3017 RMK AO2
PAQH 210156Z AUTO 12014KT 10SM OVC028 18/13 A3017 RMK AO2 SLP216 T01780128
PAQH 210142Z AUTO 12011KT 10SM OVC028 18/13 A3017 RMK AO2
PAQH 210056Z AUTO 12011KT 10SM OVC030 18/13 A3018 RMK AO2 SLP219 T01780128
PAQH 202356Z AUTO 11013KT 10SM BKN031 OVC060 18/12 A3018 RMK AO2 SLP220 T01780122 10183 20156 58002
PAQH 202336Z AUTO 11013KT 10SM OVC031 18/12 A3019 RMK AO2
PAQH 202256Z AUTO 10010KT 10SM OVC029 18/12 A3019 RMK AO2 SLP222 T01780122
PAQH 202251Z AUTO 11011KT 10SM OVC031 18/12 A3019 RMK AO2
PAQH 202243Z AUTO 11012KT 10SM BKN029 BKN033 OVC080 17/12 A3019 RMK AO2
PAQH 202156Z AUTO 10016KT 9SM SCT040 BKN080 BKN095 17/12 A3019 RMK AO2 SLP223 T01720117
PAQH 202056Z AUTO 11016KT 10SM BKN032 18/12 A3019 RMK AO2 SLP222 T01780117 55001
PAQH 202045Z AUTO 12016G21KT 10SM BKN030 OVC038 17/12 A3019 RMK AO2
PAQH 202028Z AUTO 12016G21KT 10SM BKN028 OVC055 18/12 A3019 RMK AO2
PAQH 201956Z AUTO 11017G23KT 10SM FEW031 SCT055 BKN080 17/12 A3018 RMK AO2 SLP220 T01720117
PAQH 201856Z AUTO 11014KT 10SM FEW029 BKN090 17/12 A3018 RMK AO2 SLP220 T01720117
PAQH 201756Z AUTO 09008KT 10SM OVC065 16/11 A3019 RMK AO2 SLP223 T01560111 10156 20072 56002
PAQH 201656Z AUTO 09009KT 10SM BKN049 OVC070 13/11 A3019 RMK AO2 SLP224 T01330106
PAQH 201556Z AUTO 09007KT 10SM BKN045 11/10 A3019 RMK AO2 SLP225 T01110100
PAQH 201518Z AUTO 08006KT 10SM SCT028 OVC043 10/09 A3019 RMK AO2
PAQH 201507Z AUTO 09006KT 10SM BKN028 BKN047 10/09 A3019 RMK AO2
PAQH 201456Z AUTO 00000KT 10SM BKN030 09/08 A3020 RMK AO2 SLP226 T00890083 58004
PAQH 201356Z AUTO 07006KT 10SM CLR 09/08 A3020 RMK AO2 SLP228 T00890083
PAQH 201156Z AUTO 04004KT 10SM OVC041 08/08 A3021 RMK AO2 SLP230 T00780078 10139 20067 58005
PAQH 201138Z AUTO 09006KT 3SM BR BKN041 07/07 A3022 RMK AO2
PAQH 201130Z AUTO 09007KT 1 1/4SM BR SCT043 07/07 A3022 RMK AO2
PAQH 201105Z AUTO 09004KT 1 3/4SM BR CLR 09/09 A3022 RMK AO2 VIS 3/4V5
PAQH 201056Z AUTO 00000KT 8SM CLR 11/10 A3022 RMK AO2 SLP232 T01110100
PAQH 200956Z AUTO 27004KT 10SM CLR 11/10 A3023 RMK AO2 SLP235 T01060100
PAQH 200856Z AUTO 26006KT 10SM FEW038 12/11 A3022 RMK AO2 SLP234 T01170106 401890078 50003
PAQH 200837Z AUTO 26005KT 10SM SCT029 BKN038 12/11 A3022 RMK AO2
PAQH 200816Z AUTO 00000KT 10SM OVC029 13/11 A3023 RMK AO2
PAQH 200756Z AUTO 22004KT 10SM BKN031 OVC041 12/11 A3023 RMK AO2 SLP235 T01220106
PAQH 200656Z AUTO 22006KT 10SM FEW040 13/11 A3022 RMK AO2 SLP233 T01280106
PAQH 200556Z AUTO 23009KT 10SM BKN040 14/11 A3022 RMK AO2 SLP232 T01390111 10172 20139 53000
PAQH 200356Z AUTO 30009KT 10SM OVC043 17/11 A3020 RMK AO2 SLP228 T01670111
PAQH 200256Z AUTO 26009KT 10SM BKN045 16/11 A3022 RMK AO2 SLP232 T01610111 58003
PAQH 200156Z AUTO 23012KT 10SM CLR 17/10 A3022 RMK AO2 SLP235 T01720100
PAQH 200056Z AUTO 27009KT 10SM OVC041 16/10 A3022 RMK AO2 SLP234 T01610100
PAQH 192356Z AUTO 24012KT 10SM OVC038 16/11 A3023 RMK AO2 SLP235 T01610111 10189 20144 53001
PAQH 192256Z AUTO VRB05KT 10SM OVC036 18/10 A3022 RMK AO2 SLP232 T01830100
PAQH 192156Z AUTO 06004KT 9SM OVC034 18/10 A3022 RMK AO2 SLP233 T01780100
PAQH 192056Z AUTO 06006KT 9SM OVC034 17/09 A3022 RMK AO2 SLP233 T01670094 50000
PAQH 191956Z AUTO 04005KT 9SM OVC030 16/09 A3022 RMK AO2 SLP234 T01610094
PAQH 191942Z AUTO VRB04KT 10SM BKN028 16/09 A3022 RMK AO2